Time;durP1;ratioP1;P1;durP2;ratioP2;P2;SDS_P1;SDS_P2;PMS_P1;PMS_P2;Temp;Humidity;BMP_temperature;BMP_pressure;BME280_temperature;BME280_humidity;BME280_pressure;Samples;Min_cycle;Max_cycle;Signal;HPM_P1;HPM_P2
2021/03/27 00:00:26;;;;;;;5.43;1.10;;;7.30;99.90;;;;;;4944112;29;20272;-79
2021/03/27 00:02:57;;;;;;;8.67;1.40;;;7.30;99.90;;;;;;4943909;29;20212;-78
2021/03/27 00:05:28;;;;;;;2.67;0.80;;;7.20;99.90;;;;;;4944470;29;20194;-79
2021/03/27 00:08:07;;;;;;;4.37;1.10;;;7.20;99.90;;;;;;4944525;29;20279;-78
2021/03/27 00:10:41;;;;;;;4.77;1.20;;;7.20;99.90;;;;;;4943827;29;20230;-79
2021/03/27 00:13:23;;;;;;;7.47;1.37;;;7.20;99.90;;;;;;4944614;29;20302;-79
2021/03/27 00:15:59;;;;;;;5.50;1.43;;;7.20;99.90;;;;;;4936188;29;20208;-80
2021/03/27 00:18:35;;;;;;;6.33;1.43;;;7.20;99.90;;;;;;4942915;29;20204;-78
2021/03/27 00:21:05;;;;;;;6.50;1.13;;;7.30;99.90;;;;;;4944552;29;20486;-80
2021/03/27 00:23:35;;;;;;;5.00;1.20;;;7.30;99.90;;;;;;4943920;29;20197;-79
2021/03/27 00:26:07;;;;;;;7.80;2.07;;;7.30;99.90;;;;;;4943380;29;20205;-79
2021/03/27 00:28:39;;;;;;;5.20;1.03;;;7.30;99.90;;;;;;4943755;29;20220;-80
2021/03/27 00:31:10;;;;;;;8.07;1.43;;;7.30;99.90;;;;;;4943040;29;20251;-80
2021/03/27 00:33:41;;;;;;;8.70;1.67;;;7.40;99.90;;;;;;4944642;29;20210;-79
2021/03/27 00:36:11;;;;;;;9.20;2.20;;;7.40;99.90;;;;;;4943721;29;20221;-78
2021/03/27 00:38:41;;;;;;;8.63;1.60;;;7.40;99.90;;;;;;4944029;29;20495;-79
2021/03/27 00:41:12;;;;;;;7.87;1.93;;;7.40;99.90;;;;;;4944171;29;20201;-80
2021/03/27 00:43:42;;;;;;;9.83;2.83;;;7.40;99.90;;;;;;4943373;29;20532;-78
2021/03/27 00:46:11;;;;;;;11.67;2.03;;;7.40;99.90;;;;;;4943589;29;20663;-78
2021/03/27 00:48:41;;;;;;;14.90;2.90;;;7.40;99.90;;;;;;4944321;29;20240;-78
2021/03/27 00:51:13;;;;;;;7.47;1.80;;;7.40;99.90;;;;;;4943518;29;20276;-79
2021/03/27 00:53:41;;;;;;;5.17;1.83;;;7.40;99.90;;;;;;4944137;28;20194;-79
2021/03/27 00:59:02;;;;;;;8.50;1.70;;;7.40;99.90;;;;;;4951728;29;20304;-80
2021/03/27 01:01:37;;;;;;;9.20;2.03;;;7.40;99.90;;;;;;4947635;29;20280;-79
2021/03/27 01:04:05;;;;;;;13.23;2.60;;;7.40;99.90;;;;;;4949062;29;20263;-81
2021/03/27 01:06:38;;;;;;;12.67;2.47;;;7.40;99.90;;;;;;4948737;29;20209;-80
2021/03/27 01:09:06;;;;;;;16.60;4.13;;;7.40;99.90;;;;;;4948838;29;20221;-82
2021/03/27 01:11:39;;;;;;;9.97;3.87;;;7.30;99.90;;;;;;4948889;29;20228;-78
2021/03/27 01:14:09;;;;;;;13.53;4.10;;;7.30;99.90;;;;;;4948526;29;20190;-81
2021/03/27 01:16:41;;;;;;;14.97;3.57;;;7.40;99.90;;;;;;4948894;29;20209;-81
2021/03/27 01:19:11;;;;;;;16.33;3.80;;;7.30;99.90;;;;;;4948187;29;20617;-81
2021/03/27 01:21:41;;;;;;;15.17;3.20;;;7.30;99.90;;;;;;4947420;29;20198;-81
2021/03/27 01:24:11;;;;;;;9.93;2.73;;;7.30;99.90;;;;;;4948163;29;20208;-80
2021/03/27 01:26:43;;;;;;;14.50;2.97;;;7.30;99.90;;;;;;4947916;29;20206;-82
2021/03/27 01:29:13;;;;;;;21.00;4.60;;;7.30;99.90;;;;;;4948462;29;20229;-79
2021/03/27 01:31:45;;;;;;;11.03;2.53;;;7.30;99.90;;;;;;4946639;29;20257;-81
2021/03/27 01:34:22;;;;;;;11.17;3.90;;;7.30;99.90;;;;;;4947817;29;20233;-82
2021/03/27 01:36:57;;;;;;;13.37;3.40;;;7.20;99.90;;;;;;4947660;29;20812;-79
2021/03/27 01:39:27;;;;;;;18.80;3.20;;;7.20;99.90;;;;;;4948370;29;20607;-81
2021/03/27 01:42:08;;;;;;;13.57;2.63;;;7.20;99.90;;;;;;4948546;29;20213;-81
2021/03/27 01:44:53;;;;;;;15.53;3.30;;;7.20;99.90;;;;;;4948455;29;20240;-80
2021/03/27 01:47:28;;;;;;;19.00;3.70;;;7.20;99.90;;;;;;4947610;29;20202;-81
2021/03/27 01:50:20;;;;;;;12.83;3.20;;;7.10;99.90;;;;;;4948123;29;20225;-83
2021/03/27 01:53:00;;;;;;;15.00;4.27;;;7.10;99.90;;;;;;4931375;29;20206;-79
2021/03/27 01:55:48;;;;;;;20.60;5.57;;;7.10;99.90;;;;;;4928719;29;20241;-84
2021/03/27 01:58:22;;;;;;;20.80;5.07;;;7.10;99.90;;;;;;4929721;29;20203;-81
2021/03/27 02:00:52;;;;;;;15.03;4.37;;;7.10;99.90;;;;;;4930073;29;20209;-83
2021/03/27 02:03:25;;;;;;;15.37;3.83;;;7.10;99.90;;;;;;4931226;29;20202;-83
2021/03/27 02:05:57;;;;;;;18.60;4.27;;;7.10;99.90;;;;;;4950312;28;20206;-82
2021/03/27 02:08:36;;;;;;;20.50;6.50;;;7.10;99.90;;;;;;4948102;29;20703;-82
2021/03/27 02:11:08;;;;;;;13.27;3.93;;;7.10;99.90;;;;;;4946295;29;20259;-80
2021/03/27 02:13:44;;;;;;;18.23;3.80;;;7.20;99.90;;;;;;4946470;29;20774;-80
2021/03/27 02:16:19;;;;;;;17.23;4.93;;;7.20;99.90;;;;;;4946350;29;20952;-79
2021/03/27 02:18:55;;;;;;;15.00;4.73;;;7.20;99.90;;;;;;4945597;29;20205;-81
2021/03/27 02:21:44;;;;;;;15.73;4.57;;;7.20;99.90;;;;;;4947716;29;20189;-79
2021/03/27 02:24:35;;;;;;;20.10;5.07;;;7.30;99.90;;;;;;4946919;29;20236;-81
2021/03/27 02:27:07;;;;;;;17.63;3.80;;;7.30;99.90;;;;;;4945088;29;20205;-80
2021/03/27 02:30:08;;;;;;;22.33;5.23;;;7.40;99.90;;;;;;4947009;29;20358;-79
2021/03/27 02:32:56;;;;;;;12.30;3.97;;;7.40;99.90;;;;;;4945643;29;20529;-81
2021/03/27 02:35:37;;;;;;;16.23;4.33;;;7.50;99.90;;;;;;4946972;29;20216;-81
2021/03/27 02:38:26;;;;;;;17.53;4.07;;;7.50;99.90;;;;;;4945658;29;20208;-81
2021/03/27 02:41:01;;;;;;;12.27;4.20;;;7.50;99.90;;;;;;4946235;29;20201;-80
2021/03/27 02:43:34;;;;;;;13.77;3.20;;;7.50;99.90;;;;;;4946941;29;20225;-81
2021/03/27 02:46:07;;;;;;;9.87;2.40;;;7.50;99.90;;;;;;4946085;29;20201;-82
2021/03/27 02:48:45;;;;;;;10.60;2.77;;;7.50;99.90;;;;;;4944228;29;20228;-81
2021/03/27 02:51:17;;;;;;;12.90;3.13;;;7.40;99.90;;;;;;4944057;29;20198;-80
2021/03/27 02:53:50;;;;;;;13.40;2.73;;;7.40;99.90;;;;;;4946668;29;20206;-80
2021/03/27 02:56:26;;;;;;;14.73;3.53;;;7.40;99.90;;;;;;4946506;29;20216;-80
2021/03/27 02:59:08;;;;;;;6.43;2.03;;;7.40;99.90;;;;;;4944874;29;20704;-80
2021/03/27 03:01:44;;;;;;;15.67;4.07;;;7.30;99.90;;;;;;4945253;29;20205;-80
2021/03/27 03:04:15;;;;;;;25.37;8.70;;;7.10;99.90;;;;;;4945389;29;20208;-80
2021/03/27 03:06:49;;;;;;;29.13;8.77;;;7.00;99.90;;;;;;4944021;29;20209;-78
2021/03/27 03:09:22;;;;;;;26.40;6.37;;;7.00;99.90;;;;;;4944367;29;20218;-81
2021/03/27 03:11:59;;;;;;;24.00;5.57;;;7.00;99.90;;;;;;4945302;29;20202;-79
2021/03/27 03:14:32;;;;;;;22.83;6.67;;;7.00;99.90;;;;;;4943471;29;20236;-80
2021/03/27 03:17:05;;;;;;;20.90;5.47;;;7.10;99.90;;;;;;4945058;28;20622;-80
2021/03/27 03:19:43;;;;;;;20.63;4.27;;;7.10;99.90;;;;;;4944287;29;20613;-80
2021/03/27 03:22:15;;;;;;;13.60;3.50;;;7.10;99.90;;;;;;4944704;29;20198;-80
2021/03/27 03:24:45;;;;;;;13.63;3.67;;;7.20;99.90;;;;;;4944446;29;20209;-80
2021/03/27 03:27:16;;;;;;;11.77;3.60;;;7.20;99.90;;;;;;4942805;29;20193;-78
2021/03/27 03:29:53;;;;;;;20.23;3.83;;;7.30;99.90;;;;;;4944147;29;20241;-79
2021/03/27 03:32:31;;;;;;;19.37;4.53;;;7.30;99.90;;;;;;4943096;29;20250;-79
2021/03/27 03:35:06;;;;;;;16.07;3.63;;;7.40;99.90;;;;;;4944507;29;20189;-79
2021/03/27 03:37:54;;;;;;;10.50;2.83;;;7.40;99.90;;;;;;4943041;29;20216;-80
2021/03/27 03:40:30;;;;;;;14.83;2.60;;;7.40;99.90;;;;;;4943772;29;20209;-78
2021/03/27 03:43:15;;;;;;;13.20;2.90;;;7.40;99.90;;;;;;4944604;29;20209;-79
2021/03/27 03:45:52;;;;;;;15.47;3.83;;;7.40;99.90;;;;;;4944825;29;20201;-78
2021/03/27 03:48:43;;;;;;;13.50;2.60;;;7.40;99.90;;;;;;4943978;29;20260;-79
2021/03/27 03:51:17;;;;;;;10.40;2.67;;;7.40;99.90;;;;;;4925552;29;20228;-80
2021/03/27 03:53:54;;;;;;;13.20;3.10;;;7.40;99.90;;;;;;4924950;29;20232;-79
2021/03/27 03:56:30;;;;;;;10.10;2.60;;;7.40;99.90;;;;;;4925172;29;20205;-80
2021/03/27 03:59:12;;;;;;;16.80;3.73;;;7.40;99.90;;;;;;4941420;29;20212;-79
2021/03/27 04:01:47;;;;;;;15.43;3.70;;;7.50;99.90;;;;;;4944268;29;20249;-79
2021/03/27 04:04:20;;;;;;;14.80;3.70;;;7.50;99.90;;;;;;4943434;29;20212;-79
2021/03/27 04:06:52;;;;;;;13.80;3.37;;;7.50;99.90;;;;;;4944005;29;20201;-80
2021/03/27 04:09:25;;;;;;;16.07;2.87;;;7.50;99.90;;;;;;4944391;29;20236;-81
2021/03/27 04:12:00;;;;;;;17.20;3.33;;;7.50;99.90;;;;;;4944106;29;20204;-79
2021/03/27 04:14:59;;;;;;;13.57;2.77;;;7.50;99.90;;;;;;4944374;29;20208;-79
2021/03/27 04:17:34;;;;;;;8.47;2.90;;;7.50;99.90;;;;;;4943910;29;20193;-82
2021/03/27 04:20:09;;;;;;;12.03;3.43;;;7.50;99.90;;;;;;4943012;29;20619;-80
2021/03/27 04:22:40;;;;;;;15.53;3.80;;;7.50;99.90;;;;;;4942570;29;20593;-81
2021/03/27 04:25:26;;;;;;;18.57;3.67;;;7.40;99.90;;;;;;4942731;29;20223;-80
2021/03/27 04:27:58;;;;;;;14.77;3.77;;;7.40;99.90;;;;;;4944009;28;20212;-78
2021/03/27 04:30:33;;;;;;;13.23;3.17;;;7.40;99.90;;;;;;4947224;29;20213;-79
2021/03/27 04:33:11;;;;;;;15.07;3.90;;;7.40;99.90;;;;;;4948134;29;20212;-80
2021/03/27 04:35:52;;;;;;;13.27;3.50;;;7.40;99.90;;;;;;4946098;29;20217;-79
2021/03/27 04:38:27;;;;;;;17.13;2.83;;;7.30;99.90;;;;;;4947195;29;20212;-79
2021/03/27 04:41:03;;;;;;;15.33;3.00;;;7.40;99.90;;;;;;4946663;29;20209;-79
2021/03/27 04:43:33;;;;;;;18.20;3.20;;;7.40;99.90;;;;;;4946205;29;20574;-78
2021/03/27 04:46:11;;;;;;;14.30;3.07;;;7.40;99.90;;;;;;4946410;29;20213;-79
2021/03/27 04:48:42;;;;;;;10.93;3.33;;;7.40;99.90;;;;;;4946213;29;20672;-79
2021/03/27 04:51:43;;;;;;;15.10;2.93;;;7.40;99.90;;;;;;4946566;29;20202;-79
2021/03/27 04:54:18;;;;;;;15.93;3.10;;;7.30;99.90;;;;;;4928668;29;20245;-81
2021/03/27 04:56:52;;;;;;;10.40;3.23;;;7.30;99.90;;;;;;4928297;29;20252;-79
2021/03/27 04:59:37;;;;;;;14.33;2.80;;;7.30;99.90;;;;;;4927870;29;20208;-79
2021/03/27 05:02:08;;;;;;;12.20;2.87;;;7.20;99.90;;;;;;4944112;29;20205;-79
2021/03/27 05:04:46;;;;;;;11.80;2.87;;;7.20;99.90;;;;;;4947570;29;20261;-80
2021/03/27 05:07:19;;;;;;;16.17;3.13;;;7.20;99.90;;;;;;4946260;29;20268;-79
2021/03/27 05:09:49;;;;;;;13.63;2.10;;;7.20;99.90;;;;;;4946960;29;20233;-78
2021/03/27 05:12:20;;;;;;;15.10;3.37;;;7.10;99.90;;;;;;4946927;29;20300;-78
2021/03/27 05:15:08;;;;;;;11.27;2.80;;;7.10;99.90;;;;;;4946507;29;20218;-79
2021/03/27 05:18:11;;;;;;;24.23;4.23;;;7.10;99.90;;;;;;4948204;29;20757;-80
2021/03/27 05:20:39;;;;;;;10.87;3.67;;;7.10;99.90;;;;;;4947085;29;20205;-80
2021/03/27 05:23:14;;;;;;;15.13;2.90;;;7.10;99.90;;;;;;4948042;29;20216;-78
2021/03/27 05:26:01;;;;;;;16.00;2.63;;;7.00;99.90;;;;;;4947247;29;20622;-78
2021/03/27 05:28:52;;;;;;;19.03;4.80;;;7.00;99.90;;;;;;4947027;29;20249;-79
2021/03/27 05:31:29;;;;;;;13.47;3.57;;;7.00;99.90;;;;;;4946497;29;20209;-82
2021/03/27 05:34:06;;;;;;;14.33;2.87;;;7.00;99.90;;;;;;4948809;29;20200;-80
2021/03/27 05:36:46;;;;;;;17.83;3.60;;;7.00;99.90;;;;;;4938606;29;20210;-81
2021/03/27 05:39:28;;;;;;;11.80;2.80;;;7.00;99.90;;;;;;4928636;29;20194;-79
2021/03/27 05:42:32;;;;;;;14.23;3.40;;;7.00;99.90;;;;;;4928810;29;20198;-80
2021/03/27 05:45:31;;;;;;;13.80;3.63;;;6.90;99.90;;;;;;4918230;29;20221;-82
2021/03/27 05:48:37;;;;;;;15.07;2.70;;;6.90;99.90;;;;;;4928487;29;20210;-82
2021/03/27 05:51:26;;;;;;;16.43;3.33;;;6.90;99.90;;;;;;4929797;29;20209;-80
2021/03/27 05:54:35;;;;;;;15.07;2.90;;;6.90;99.90;;;;;;4947802;29;20299;-81
2021/03/27 05:57:41;;;;;;;13.87;3.10;;;6.90;99.90;;;;;;4948373;29;20213;-81
2021/03/27 06:00:32;;;;;;;9.00;3.03;;;6.90;99.90;;;;;;4888142;29;20260;-80
2021/03/27 06:03:35;;;;;;;15.03;2.33;;;6.90;99.90;;;;;;4945763;29;20748;-79
2021/03/27 06:06:36;;;;;;;12.90;3.33;;;6.90;99.90;;;;;;4946295;29;20217;-78
2021/03/27 06:09:34;;;;;;;17.70;2.93;;;6.90;99.90;;;;;;4944707;29;20225;-80
2021/03/27 06:12:49;;;;;;;11.73;3.13;;;7.00;99.90;;;;;;4946835;29;20904;-82
2021/03/27 06:15:39;;;;;;;11.10;2.83;;;7.00;99.90;;;;;;4906811;29;20262;-81
2021/03/27 06:18:25;;;;;;;16.03;3.17;;;7.00;99.90;;;;;;4946866;29;20260;-79
2021/03/27 06:21:19;;;;;;;10.10;2.63;;;7.00;99.90;;;;;;4946402;29;20213;-80
2021/03/27 06:24:05;;;;;;;15.67;3.10;;;7.10;99.90;;;;;;4944212;29;20197;-82
2021/03/27 06:26:52;;;;;;;12.47;3.63;;;7.10;99.90;;;;;;4944676;29;20553;-78
2021/03/27 06:29:55;;;;;;;19.63;3.47;;;7.20;99.90;;;;;;4944739;29;20233;-80
2021/03/27 06:33:07;;;;;;;11.37;2.87;;;7.20;99.90;;;;;;4945907;29;20201;-77
2021/03/27 06:35:49;;;;;;;15.70;2.63;;;7.20;99.90;;;;;;4938128;29;20206;-78
2021/03/27 06:39:09;;;;;;;21.43;3.63;;;7.20;99.90;;;;;;4926350;29;20586;-79
2021/03/27 06:42:01;;;;;;;10.07;3.07;;;7.20;99.90;;;;;;4926079;29;21105;-78
2021/03/27 06:44:56;;;;;;;12.07;3.10;;;7.20;99.90;;;;;;4926975;29;20646;-84
2021/03/27 06:47:51;;;;;;;17.23;3.73;;;7.10;99.90;;;;;;4940488;29;20208;-78
2021/03/27 06:50:45;;;;;;;14.03;3.93;;;7.10;99.90;;;;;;4945077;29;20288;-77
2021/03/27 06:53:53;;;;;;;24.90;4.17;;;7.10;99.90;;;;;;4945952;29;20194;-79
2021/03/27 06:56:39;;;;;;;16.83;3.40;;;7.20;99.90;;;;;;4945490;29;20276;-81
2021/03/27 06:59:45;;;;;;;16.87;3.80;;;7.30;99.90;;;;;;4940347;29;20201;-79
2021/03/27 07:02:39;;;;;;;15.17;3.80;;;7.40;99.90;;;;;;4945853;29;20213;-80
2021/03/27 07:05:58;;;;;;;15.03;4.07;;;7.40;99.90;;;;;;4945051;29;20212;-81
2021/03/27 07:08:57;;;;;;;13.60;3.40;;;7.50;99.90;;;;;;4944302;29;20228;-82
2021/03/27 07:11:45;;;;;;;13.23;2.93;;;7.40;99.90;;;;;;4945687;29;20228;-79
2021/03/27 07:14:47;;;;;;;14.03;3.50;;;7.40;99.90;;;;;;4938251;29;20218;-78
2021/03/27 07:17:45;;;;;;;11.87;2.50;;;7.40;99.90;;;;;;4924264;29;20206;-78
2021/03/27 07:21:03;;;;;;;11.70;2.70;;;7.50;99.90;;;;;;4909595;29;20855;-80
2021/03/27 07:23:43;;;;;;;8.53;2.40;;;7.50;99.90;;;;;;4903858;29;20333;-80
2021/03/27 07:26:53;;;;;;;14.07;3.47;;;7.20;99.90;;;;;;4925141;29;20198;-80
2021/03/27 07:29:58;;;;;;;12.70;3.33;;;7.00;99.90;;;;;;4931801;29;20232;-81
2021/03/27 07:32:38;;;;;;;19.50;4.10;;;6.90;99.90;;;;;;4997557;23;20239;-79
2021/03/27 07:35:22;;;;;;;14.90;3.37;;;6.90;99.90;;;;;;4982944;28;20216;-79
2021/03/27 07:38:22;;;;;;;11.90;2.87;;;6.90;99.90;;;;;;4983486;28;20203;-78
2021/03/27 07:40:59;;;;;;;22.13;3.87;;;6.90;99.90;;;;;;4975757;28;20211;-79
2021/03/27 07:43:46;;;;;;;14.10;3.33;;;6.90;99.90;;;;;;4982625;28;20224;-78
2021/03/27 07:46:32;;;;;;;17.87;3.67;;;7.00;99.90;;;;;;4982711;28;20211;-78
2021/03/27 07:49:47;;;;;;;13.37;3.20;;;7.10;99.90;;;;;;4982753;28;20235;-80
2021/03/27 07:52:26;;;;;;;11.63;3.37;;;7.20;99.90;;;;;;4982732;28;20211;-77
2021/03/27 07:58:46;;;;;;;14.50;3.40;;;7.30;99.90;;;;;;4959429;28;20574;-78
2021/03/27 08:01:42;;;;;;;10.03;3.07;;;7.40;99.90;;;;;;4982093;28;20211;-80
2021/03/27 08:05:03;;;;;;;15.60;4.10;;;7.40;99.90;;;;;;4983222;28;20521;-79
2021/03/27 08:07:52;;;;;;;13.20;4.60;;;7.30;99.90;;;;;;4992391;28;20195;-80
2021/03/27 08:10:26;;;;;;;12.53;3.03;;;7.30;99.90;;;;;;5002332;28;20223;-80
2021/03/27 08:13:29;;;;;;;11.90;3.30;;;7.30;99.90;;;;;;4996048;28;20211;-80
2021/03/27 08:16:29;;;;;;;13.13;3.30;;;7.40;99.90;;;;;;4983248;28;20192;-79
2021/03/27 08:19:36;;;;;;;16.33;3.33;;;7.40;99.90;;;;;;4982447;28;20199;-80
2021/03/27 08:22:45;;;;;;;10.33;2.60;;;7.40;99.90;;;;;;4975518;28;20307;-79
2021/03/27 08:25:18;;;;;;;14.83;3.77;;;7.50;99.90;;;;;;4901952;29;20875;-79
2021/03/27 08:28:12;;;;;;;10.47;3.23;;;7.60;99.90;;;;;;4965778;28;20278;-80
2021/03/27 08:30:56;;;;;;;12.53;3.07;;;7.60;99.90;;;;;;4980752;28;20246;-82
2021/03/27 08:34:01;;;;;;;11.33;2.90;;;7.70;99.90;;;;;;4983586;28;20196;-82
2021/03/27 08:36:58;;;;;;;11.17;2.60;;;7.70;99.90;;;;;;4980723;28;20780;-79
2021/03/27 08:40:03;;;;;;;14.20;2.33;;;7.60;99.90;;;;;;4973747;28;20253;-82
2021/03/27 08:43:11;;;;;;;9.93;2.43;;;7.50;99.90;;;;;;4984081;28;20239;-81
2021/03/27 08:46:13;;;;;;;13.07;3.30;;;7.60;99.90;;;;;;4984815;28;20215;-82
2021/03/27 08:49:17;;;;;;;15.93;2.77;;;7.80;99.90;;;;;;4981887;28;20206;-80
2021/03/27 08:51:58;;;;;;;15.60;3.90;;;7.90;99.90;;;;;;4953243;28;20208;-79
2021/03/27 08:55:01;;;;;;;14.63;3.33;;;8.10;99.90;;;;;;4984041;28;20203;-80
2021/03/27 08:58:09;;;;;;;7.93;2.77;;;8.20;99.90;;;;;;4977118;28;20203;-80
2021/03/27 09:01:04;;;;;;;9.93;2.60;;;8.20;99.90;;;;;;4902900;29;20214;-79
2021/03/27 09:04:08;;;;;;;8.67;2.40;;;8.10;99.90;;;;;;4981642;28;20200;-79
2021/03/27 09:06:47;;;;;;;11.73;2.37;;;7.90;99.90;;;;;;4984277;28;20881;-80
2021/03/27 09:09:32;;;;;;;11.30;3.13;;;7.90;99.90;;;;;;5001663;28;20239;-78
2021/03/27 09:12:19;;;;;;;12.77;2.73;;;8.00;99.90;;;;;;5003801;28;20211;-79
2021/03/27 09:15:29;;;;;;;9.30;3.17;;;8.00;99.90;;;;;;4996838;28;20596;-81
2021/03/27 09:18:18;;;;;;;16.70;3.37;;;8.00;99.90;;;;;;4987345;28;20204;-78
2021/03/27 09:21:06;;;;;;;13.43;3.27;;;8.10;99.90;;;;;;4986757;28;20730;-80
2021/03/27 09:23:46;;;;;;;13.57;2.77;;;8.00;99.90;;;;;;4986667;28;20204;-79
2021/03/27 09:26:21;;;;;;;11.67;2.93;;;8.00;99.90;;;;;;4985519;28;20200;-80
2021/03/27 09:29:00;;;;;;;16.53;3.40;;;8.20;99.90;;;;;;4992014;28;20513;-80
2021/03/27 09:31:47;;;;;;;11.90;3.13;;;8.30;99.90;;;;;;5004497;28;20248;-80
2021/03/27 09:34:25;;;;;;;13.20;3.00;;;8.20;99.90;;;;;;5004486;28;20207;-78
2021/03/27 09:36:58;;;;;;;13.07;3.30;;;8.30;99.90;;;;;;4995253;28;20278;-82
2021/03/27 09:39:30;;;;;;;16.33;3.87;;;8.50;99.90;;;;;;4985773;28;20204;-80
2021/03/27 09:42:12;;;;;;;17.43;4.40;;;8.70;99.90;;;;;;4987604;28;20215;-81
2021/03/27 09:44:53;;;;;;;15.60;3.83;;;8.80;99.90;;;;;;4986899;28;20581;-83
2021/03/27 09:47:46;;;;;;;12.10;4.20;;;8.90;99.90;;;;;;4985259;28;20235;-76
2021/03/27 09:50:20;;;;;;;11.90;3.10;;;8.90;99.90;;;;;;4986457;28;20231;-80
2021/03/27 09:52:57;;;;;;;17.37;4.53;;;8.80;99.90;;;;;;4986436;28;20205;-82
2021/03/27 09:55:39;;;;;;;15.40;3.37;;;8.80;99.90;;;;;;4985074;28;20534;-81
2021/03/27 09:58:16;;;;;;;16.47;2.93;;;8.80;99.90;;;;;;4984800;28;20211;-80
2021/03/27 10:00:56;;;;;;;9.97;2.43;;;8.80;99.90;;;;;;4984935;28;20199;-80
2021/03/27 10:03:34;;;;;;;17.37;3.03;;;8.80;99.90;;;;;;4984673;28;20214;-80
2021/03/27 10:06:23;;;;;;;11.27;3.17;;;8.90;99.90;;;;;;4985893;28;20196;-78
2021/03/27 10:09:01;;;;;;;10.90;2.80;;;8.90;99.90;;;;;;4986578;28;20271;-79
2021/03/27 10:11:31;;;;;;;10.70;2.50;;;8.90;99.90;;;;;;4986427;28;21008;-77
2021/03/27 10:14:02;;;;;;;14.20;3.20;;;8.80;99.90;;;;;;4985911;28;20243;-79
2021/03/27 10:16:40;;;;;;;15.83;3.27;;;8.90;99.90;;;;;;4986908;28;20563;-81
2021/03/27 10:19:24;;;;;;;16.70;3.03;;;8.90;99.90;;;;;;4987518;28;20750;-78
2021/03/27 10:22:06;;;;;;;15.23;3.80;;;8.80;99.90;;;;;;4985442;28;20207;-78
2021/03/27 10:24:42;;;;;;;21.73;4.33;;;8.60;99.90;;;;;;4986739;28;20891;-81
2021/03/27 10:27:17;;;;;;;12.30;3.23;;;8.60;99.90;;;;;;4986315;28;20218;-79
2021/03/27 10:30:00;;;;;;;9.63;3.43;;;8.70;99.90;;;;;;4988896;28;20247;-83
2021/03/27 10:32:59;;;;;;;15.67;3.33;;;8.70;99.90;;;;;;5007803;28;20250;-82
2021/03/27 10:35:54;;;;;;;15.00;3.40;;;8.70;99.90;;;;;;5005779;28;20564;-79
2021/03/27 10:38:48;;;;;;;18.40;3.93;;;8.70;99.90;;;;;;4987077;28;20250;-78
2021/03/27 10:41:23;;;;;;;14.03;3.87;;;8.70;99.90;;;;;;4994532;23;20270;-79
2021/03/27 10:43:56;;;;;;;11.63;3.00;;;8.70;99.90;;;;;;4969149;28;21067;-78
2021/03/27 10:46:26;;;;;;;16.67;3.17;;;8.60;99.90;;;;;;4987300;28;20199;-81
2021/03/27 10:49:23;;;;;;;18.93;4.00;;;8.50;99.90;;;;;;4987282;28;20200;-82
2021/03/27 10:52:26;;;;;;;19.40;5.27;;;8.40;99.90;;;;;;4969519;28;20224;-83
2021/03/27 10:55:40;;;;;;;17.20;3.97;;;8.10;99.90;;;;;;4987805;28;20604;-81
2021/03/27 10:58:52;;;;;;;21.03;4.27;;;8.00;99.90;;;;;;4985703;28;20196;-83
2021/03/27 11:01:46;;;;;;;22.80;4.20;;;7.90;99.90;;;;;;4984425;28;20208;-78
2021/03/27 11:05:08;;;;;;;17.87;4.00;;;7.90;99.90;;;;;;4984680;28;20221;-77
2021/03/27 11:08:12;;;;;;;17.77;4.23;;;8.00;99.90;;;;;;4984695;28;20680;-79
2021/03/27 11:11:18;;;;;;;18.13;4.43;;;8.00;99.90;;;;;;4982900;28;20230;-79
2021/03/27 11:14:08;;;;;;;14.93;3.70;;;8.10;99.90;;;;;;4905115;29;20248;-80
2021/03/27 11:17:01;;;;;;;14.00;3.27;;;8.10;99.90;;;;;;4979871;28;20220;-81
2021/03/27 11:19:53;;;;;;;19.47;3.03;;;8.10;99.90;;;;;;4983218;28;20258;-77
2021/03/27 11:22:47;;;;;;;18.10;3.90;;;8.10;99.90;;;;;;4983399;28;20200;-76
2021/03/27 11:25:49;;;;;;;10.20;3.10;;;8.10;99.90;;;;;;4984413;28;20213;-77
2021/03/27 11:28:21;;;;;;;15.07;3.67;;;8.20;99.90;;;;;;4982979;28;20210;-79
2021/03/27 11:31:15;;;;;;;19.03;4.37;;;8.20;99.90;;;;;;4983554;28;20216;-81
2021/03/27 11:34:01;;;;;;;15.30;3.03;;;8.20;99.90;;;;;;4983546;28;20202;-82
2021/03/27 11:36:37;;;;;;;14.60;2.80;;;8.30;99.90;;;;;;4983004;28;20188;-79
2021/03/27 11:39:13;;;;;;;17.27;4.43;;;8.40;99.90;;;;;;4983972;28;20230;-80
2021/03/27 11:41:43;;;;;;;13.87;3.50;;;8.60;99.90;;;;;;4984275;28;20247;-79
2021/03/27 11:44:29;;;;;;;18.10;3.83;;;8.70;99.90;;;;;;4984201;28;20220;-84
2021/03/27 11:47:00;;;;;;;17.50;3.67;;;8.70;99.90;;;;;;4984117;28;20215;-79
2021/03/27 11:49:37;;;;;;;15.60;4.17;;;8.70;99.90;;;;;;4983135;28;20227;-81
2021/03/27 11:52:11;;;;;;;16.57;4.20;;;8.80;99.90;;;;;;4984899;28;20212;-83
2021/03/27 11:54:53;;;;;;;22.73;4.20;;;8.90;99.90;;;;;;4984698;28;20208;-78
2021/03/27 11:57:42;;;;;;;18.90;4.47;;;9.00;99.90;;;;;;4997859;28;20211;-80
2021/03/27 12:03:20;;;;;;;19.77;3.77;;;9.20;99.90;;;;;;4983837;28;20272;-82
2021/03/27 12:05:51;;;;;;;19.17;4.43;;;9.30;99.90;;;;;;4984905;28;20204;-82
2021/03/27 12:08:32;;;;;;;17.83;4.00;;;9.30;99.90;;;;;;4999676;28;20251;-82
2021/03/27 12:11:08;;;;;;;12.93;2.93;;;9.50;99.90;;;;;;4992352;28;20238;-80
2021/03/27 12:13:41;;;;;;;15.53;3.07;;;9.60;99.90;;;;;;4983248;28;20222;-81
2021/03/27 12:16:23;;;;;;;15.23;3.20;;;9.60;99.90;;;;;;4983107;28;20226;-79
2021/03/27 12:19:25;;;;;;;11.60;3.30;;;9.60;99.90;;;;;;4982522;28;20254;-77
2021/03/27 12:22:01;;;;;;;13.80;3.33;;;9.70;99.90;;;;;;4984069;28;20223;-77
2021/03/27 12:24:39;;;;;;;13.77;3.93;;;9.90;99.90;;;;;;4982432;28;20207;-77
2021/03/27 12:27:15;;;;;;;21.80;4.73;;;10.10;99.90;;;;;;4982418;28;20199;-77
2021/03/27 12:29:45;;;;;;;16.07;4.73;;;10.10;99.90;;;;;;4982892;28;20223;-78
2021/03/27 12:32:26;;;;;;;20.87;3.63;;;10.30;99.90;;;;;;4982907;28;20212;-79
2021/03/27 12:34:59;;;;;;;17.50;3.43;;;10.40;99.90;;;;;;4982904;28;20204;-77
2021/03/27 12:37:30;;;;;;;13.63;4.43;;;10.60;99.90;;;;;;4982656;28;20203;-80
2021/03/27 12:40:02;;;;;;;13.87;3.77;;;10.60;99.90;;;;;;4983749;28;20243;-79
2021/03/27 12:42:36;;;;;;;23.47;3.87;;;10.70;99.90;;;;;;4982199;28;20197;-82
2021/03/27 12:45:07;;;;;;;21.03;3.50;;;10.60;99.90;;;;;;4983094;28;20249;-78
2021/03/27 12:47:58;;;;;;;11.70;3.37;;;10.40;99.90;;;;;;4983916;28;20231;-81
2021/03/27 12:50:45;;;;;;;12.67;3.73;;;10.30;99.90;;;;;;4984326;28;20219;-80
2021/03/27 12:53:48;;;;;;;16.83;4.53;;;10.40;99.90;;;;;;4985070;28;20218;-79
2021/03/27 12:56:33;;;;;;;22.57;4.50;;;10.40;99.90;;;;;;4971809;28;20212;-80
2021/03/27 12:59:08;;;;;;;17.87;4.07;;;10.40;99.90;;;;;;4987531;28;20188;-79
2021/03/27 13:01:57;;;;;;;12.67;3.80;;;10.50;99.90;;;;;;5001033;28;20340;-78
2021/03/27 13:04:43;;;;;;;13.53;3.57;;;10.60;99.90;;;;;;5007449;28;20203;-80
2021/03/27 13:07:21;;;;;;;15.70;4.07;;;10.70;99.90;;;;;;4989017;28;20212;-79
2021/03/27 13:10:02;;;;;;;15.27;3.90;;;10.80;99.90;;;;;;4988966;28;20211;-79
2021/03/27 13:12:36;;;;;;;21.37;4.50;;;10.60;99.90;;;;;;4987918;28;20200;-81
2021/03/27 13:15:38;;;;;;;17.33;3.53;;;10.60;99.90;;;;;;4994438;28;20208;-81
2021/03/27 13:18:32;;;;;;;16.83;4.70;;;10.60;99.90;;;;;;4989081;28;20187;-83
2021/03/27 13:21:23;;;;;;;17.50;3.60;;;10.60;99.90;;;;;;4988825;28;20208;-78
2021/03/27 13:23:55;;;;;;;16.43;4.03;;;10.70;99.90;;;;;;4982499;28;20208;-77
2021/03/27 13:26:25;;;;;;;25.23;5.00;;;10.80;99.90;;;;;;4984704;28;20204;-77
2021/03/27 13:29:03;;;;;;;19.57;3.70;;;11.00;99.90;;;;;;4985114;28;20912;-77
2021/03/27 13:31:37;;;;;;;17.53;3.33;;;11.10;99.90;;;;;;4984484;28;20274;-79
2021/03/27 13:34:11;;;;;;;20.00;4.40;;;11.20;99.90;;;;;;4985614;28;20318;-76
2021/03/27 13:36:41;;;;;;;12.53;3.97;;;11.30;99.90;;;;;;4984752;28;20776;-77
2021/03/27 13:39:34;;;;;;;16.17;4.57;;;11.40;99.90;;;;;;4985611;28;20211;-76
2021/03/27 13:42:30;;;;;;;17.00;3.43;;;11.40;99.90;;;;;;4984730;28;20220;-76
2021/03/27 13:45:10;;;;;;;19.47;4.27;;;11.40;99.90;;;;;;4984762;28;20313;-77
2021/03/27 13:47:44;;;;;;;17.90;4.00;;;11.50;99.90;;;;;;4985309;28;20222;-77
2021/03/27 13:50:22;;;;;;;16.67;4.73;;;11.60;99.90;;;;;;4984811;28;20236;-74
2021/03/27 13:53:05;;;;;;;17.13;4.10;;;11.60;99.90;;;;;;4983901;28;20648;-79
2021/03/27 13:55:37;;;;;;;13.10;3.47;;;11.70;99.90;;;;;;4985439;28;20208;-75
2021/03/27 13:58:14;;;;;;;16.73;4.50;;;11.50;99.90;;;;;;4984717;28;20929;-75
2021/03/27 14:00:47;;;;;;;15.80;3.97;;;11.30;99.90;;;;;;4984482;28;20877;-81
2021/03/27 14:03:29;;;;;;;12.00;3.63;;;11.00;99.90;;;;;;4985437;28;20188;-75
2021/03/27 14:06:04;;;;;;;15.03;3.70;;;10.90;99.90;;;;;;4985715;28;20600;-77
2021/03/27 14:08:42;;;;;;;13.07;3.40;;;10.80;99.90;;;;;;5003020;28;20210;-81
2021/03/27 14:11:15;;;;;;;16.93;3.73;;;10.70;99.90;;;;;;5004818;28;20322;-78
2021/03/27 14:13:47;;;;;;;20.27;4.87;;;10.60;99.90;;;;;;4993902;28;20211;-74
2021/03/27 14:16:36;;;;;;;19.63;4.47;;;10.60;99.90;;;;;;4986810;28;20524;-82